sensor_id;sensor_type;location;lat;lon;timestamp;pressure;altitude;pressure_sealevel;temperature;humidity
66021;BME280;52789;59.980;30.346;2023-06-10T00:06:35;102606.28;;;8.75;67.99
66021;BME280;52789;59.980;30.346;2023-06-10T00:09:02;102598.81;;;8.67;67.19
66021;BME280;52789;59.980;30.346;2023-06-10T00:11:29;102603.91;;;8.57;68.76
66021;BME280;52789;59.980;30.346;2023-06-10T00:13:55;102608.81;;;8.51;69.48
66021;BME280;52789;59.980;30.346;2023-06-10T00:16:20;102612.63;;;8.47;68.45
66021;BME280;52789;59.980;30.346;2023-06-10T00:18:45;102613.91;;;8.41;70.08
66021;BME280;52789;59.980;30.346;2023-06-10T00:21:12;102612.31;;;8.38;69.12
66021;BME280;52789;59.980;30.346;2023-06-10T00:23:38;102610.84;;;8.33;69.49
66021;BME280;52789;59.980;30.346;2023-06-10T00:26:03;102616.47;;;8.28;70.03
66021;BME280;52789;59.980;30.346;2023-06-10T00:28:29;102626.34;;;8.26;70.54
66021;BME280;52789;59.980;30.346;2023-06-10T00:30:55;102624.66;;;8.25;70.84
66021;BME280;52789;59.980;30.346;2023-06-10T00:33:21;102624.75;;;8.24;70.86
66021;BME280;52789;59.980;30.346;2023-06-10T00:35:46;102631.00;;;8.23;71.00
66021;BME280;52789;59.980;30.346;2023-06-10T00:38:13;102640.13;;;8.19;72.70
66021;BME280;52789;59.980;30.346;2023-06-10T00:40:38;102634.19;;;8.15;71.88
66021;BME280;52789;59.980;30.346;2023-06-10T00:43:04;102635.50;;;8.08;72.59
66021;BME280;52789;59.980;30.346;2023-06-10T00:45:29;102636.47;;;8.07;72.24
66021;BME280;52789;59.980;30.346;2023-06-10T00:47:55;102638.38;;;8.05;72.62
66021;BME280;52789;59.980;30.346;2023-06-10T00:50:20;102636.88;;;8.01;73.33
66021;BME280;52789;59.980;30.346;2023-06-10T00:52:46;102642.19;;;8.01;73.00
66021;BME280;52789;59.980;30.346;2023-06-10T00:55:13;102648.53;;;7.98;73.35
66021;BME280;52789;59.980;30.346;2023-06-10T00:57:39;102652.78;;;8.01;72.51
66021;BME280;52789;59.980;30.346;2023-06-10T01:00:05;102658.09;;;8.01;72.15
66021;BME280;52789;59.980;30.346;2023-06-10T01:02:33;102649.38;;;7.99;73.66
66021;BME280;52789;59.980;30.346;2023-06-10T01:04:58;102656.69;;;7.95;73.97
66021;BME280;52789;59.980;30.346;2023-06-10T01:07:29;102654.81;;;7.97;74.34
66021;BME280;52789;59.980;30.346;2023-06-10T01:12:43;102659.97;;;7.86;75.95
66021;BME280;52789;59.980;30.346;2023-06-10T01:15:16;102665.25;;;7.86;74.64
66021;BME280;52789;59.980;30.346;2023-06-10T01:18:01;102657.41;;;7.85;73.58
66021;BME280;52789;59.980;30.346;2023-06-10T01:20:27;102665.47;;;7.83;74.91
66021;BME280;52789;59.980;30.346;2023-06-10T01:22:56;102662.91;;;7.82;74.79
66021;BME280;52789;59.980;30.346;2023-06-10T01:25:23;102669.91;;;7.83;76.16
66021;BME280;52789;59.980;30.346;2023-06-10T01:27:53;102666.50;;;7.81;75.79
66021;BME280;52789;59.980;30.346;2023-06-10T01:30:19;102667.38;;;7.81;74.63
66021;BME280;52789;59.980;30.346;2023-06-10T01:32:50;102673.69;;;7.78;77.46
66021;BME280;52789;59.980;30.346;2023-06-10T01:35:15;102674.84;;;7.74;77.44
66021;BME280;52789;59.980;30.346;2023-06-10T01:37:42;102671.13;;;7.77;77.33
66021;BME280;52789;59.980;30.346;2023-06-10T01:40:10;102670.09;;;7.80;76.68
66021;BME280;52789;59.980;30.346;2023-06-10T01:42:37;102668.38;;;7.78;77.16
66021;BME280;52789;59.980;30.346;2023-06-10T01:45:02;102680.03;;;7.76;77.83
66021;BME280;52789;59.980;30.346;2023-06-10T01:47:28;102679.09;;;7.77;77.41
66021;BME280;52789;59.980;30.346;2023-06-10T01:49:54;102686.19;;;7.76;77.04
66021;BME280;52789;59.980;30.346;2023-06-10T01:52:19;102691.13;;;7.83;76.36
66021;BME280;52789;59.980;30.346;2023-06-10T01:54:45;102689.25;;;7.85;75.75
66021;BME280;52789;59.980;30.346;2023-06-10T01:57:10;102690.94;;;7.86;75.93
66021;BME280;52789;59.980;30.346;2023-06-10T01:59:35;102699.84;;;7.85;77.84
66021;BME280;52789;59.980;30.346;2023-06-10T02:02:03;102701.25;;;7.76;79.43
66021;BME280;52789;59.980;30.346;2023-06-10T02:04:28;102704.41;;;7.68;80.00
66021;BME280;52789;59.980;30.346;2023-06-10T02:06:54;102711.63;;;7.66;79.57
66021;BME280;52789;59.980;30.346;2023-06-10T02:09:20;102716.91;;;7.66;79.85
66021;BME280;52789;59.980;30.346;2023-06-10T02:11:45;102716.16;;;7.64;80.57
66021;BME280;52789;59.980;30.346;2023-06-10T02:14:11;102714.38;;;7.65;80.47
66021;BME280;52789;59.980;30.346;2023-06-10T02:16:36;102717.00;;;7.65;80.72
66021;BME280;52789;59.980;30.346;2023-06-10T02:19:01;102715.00;;;7.68;80.24
66021;BME280;52789;59.980;30.346;2023-06-10T02:21:28;102718.41;;;7.70;81.23
66021;BME280;52789;59.980;30.346;2023-06-10T02:23:53;102721.81;;;7.72;81.22
66021;BME280;52789;59.980;30.346;2023-06-10T02:26:18;102728.94;;;7.72;81.80
66021;BME280;52789;59.980;30.346;2023-06-10T02:28:45;102724.78;;;7.68;81.50
66021;BME280;52789;59.980;30.346;2023-06-10T02:31:10;102724.69;;;7.69;81.45
66021;BME280;52789;59.980;30.346;2023-06-10T02:33:35;102727.97;;;7.73;81.48
66021;BME280;52789;59.980;30.346;2023-06-10T02:36:05;102724.19;;;7.77;81.09
66021;BME280;52789;59.980;30.346;2023-06-10T02:38:30;102725.78;;;7.80;81.46
66021;BME280;52789;59.980;30.346;2023-06-10T02:40:55;102737.00;;;7.85;80.64
66021;BME280;52789;59.980;30.346;2023-06-10T02:43:21;102728.72;;;7.89;80.73
66021;BME280;52789;59.980;30.346;2023-06-10T02:45:46;102738.09;;;7.95;80.67
66021;BME280;52789;59.980;30.346;2023-06-10T02:48:11;102745.66;;;8.01;80.77
66021;BME280;52789;59.980;30.346;2023-06-10T02:50:36;102747.34;;;8.16;81.42
66021;BME280;52789;59.980;30.346;2023-06-10T02:53:03;102749.75;;;8.87;79.58
66021;BME280;52789;59.980;30.346;2023-06-10T02:55:29;102755.28;;;10.83;74.68
66021;BME280;52789;59.980;30.346;2023-06-10T02:57:55;102762.28;;;13.06;64.09
66021;BME280;52789;59.980;30.346;2023-06-10T03:00:21;102757.41;;;14.62;56.16
66021;BME280;52789;59.980;30.346;2023-06-10T03:02:46;102767.59;;;15.63;51.41
66021;BME280;52789;59.980;30.346;2023-06-10T03:05:12;102771.41;;;16.25;49.95
66021;BME280;52789;59.980;30.346;2023-06-10T03:07:38;102772.75;;;16.92;46.25
66021;BME280;52789;59.980;30.346;2023-06-10T03:10:04;102773.50;;;17.02;47.00
66021;BME280;52789;59.980;30.346;2023-06-10T03:12:30;102776.06;;;17.30;46.42
66021;BME280;52789;59.980;30.346;2023-06-10T03:14:55;102775.44;;;17.10;45.09
66021;BME280;52789;59.980;30.346;2023-06-10T03:17:20;102776.66;;;16.98;45.90
66021;BME280;52789;59.980;30.346;2023-06-10T03:19:46;102783.34;;;17.12;45.46
66021;BME280;52789;59.980;30.346;2023-06-10T03:22:14;102782.53;;;17.37;45.18
66021;BME280;52789;59.980;30.346;2023-06-10T03:24:40;102781.28;;;17.57;43.94
66021;BME280;52789;59.980;30.346;2023-06-10T03:27:09;102785.06;;;17.64;43.42
66021;BME280;52789;59.980;30.346;2023-06-10T03:29:36;102779.09;;;17.87;43.71
66021;BME280;52789;59.980;30.346;2023-06-10T03:32:02;102787.63;;;18.08;43.08
66021;BME280;52789;59.980;30.346;2023-06-10T03:34:27;102786.75;;;17.65;43.58
66021;BME280;52789;59.980;30.346;2023-06-10T03:36:52;102784.56;;;16.19;46.71
66021;BME280;52789;59.980;30.346;2023-06-10T03:39:18;102781.84;;;16.01;48.45
66021;BME280;52789;59.980;30.346;2023-06-10T03:41:43;102790.75;;;17.10;45.46
66021;BME280;52789;59.980;30.346;2023-06-10T03:44:08;102796.88;;;17.98;43.89
66021;BME280;52789;59.980;30.346;2023-06-10T03:46:34;102792.78;;;18.44;42.14
66021;BME280;52789;59.980;30.346;2023-06-10T03:48:59;102794.56;;;19.02;41.68
66021;BME280;52789;59.980;30.346;2023-06-10T03:51:26;102795.91;;;19.30;40.74
66021;BME280;52789;59.980;30.346;2023-06-10T03:53:51;102802.31;;;19.29;39.86
66021;BME280;52789;59.980;30.346;2023-06-10T03:56:16;102803.34;;;19.28;40.71
66021;BME280;52789;59.980;30.346;2023-06-10T03:58:41;102804.03;;;19.38;39.65
66021;BME280;52789;59.980;30.346;2023-06-10T04:01:07;102814.31;;;19.35;40.04
66021;BME280;52789;59.980;30.346;2023-06-10T04:03:32;102813.16;;;19.21;40.43
66021;BME280;52789;59.980;30.346;2023-06-10T04:06:01;102814.13;;;19.61;39.78
66021;BME280;52789;59.980;30.346;2023-06-10T04:08:27;102811.25;;;19.62;39.13
66021;BME280;52789;59.980;30.346;2023-06-10T04:10:53;102820.06;;;19.24;40.20
66021;BME280;52789;59.980;30.346;2023-06-10T04:13:18;102812.78;;;19.48;40.36
66021;BME280;52789;59.980;30.346;2023-06-10T04:15:44;102816.06;;;19.99;39.16
66021;BME280;52789;59.980;30.346;2023-06-10T04:18:10;102820.06;;;19.56;39.42
66021;BME280;52789;59.980;30.346;2023-06-10T04:20:35;102822.34;;;19.84;38.69
66021;BME280;52789;59.980;30.346;2023-06-10T04:23:01;102824.56;;;19.80;38.56
66021;BME280;52789;59.980;30.346;2023-06-10T04:25:26;102820.44;;;20.00;38.99
66021;BME280;52789;59.980;30.346;2023-06-10T04:27:52;102823.38;;;20.22;38.74
66021;BME280;52789;59.980;30.346;2023-06-10T04:30:17;102827.19;;;20.04;37.63
66021;BME280;52789;59.980;30.346;2023-06-10T04:32:43;102832.19;;;19.60;37.44
66021;BME280;52789;59.980;30.346;2023-06-10T04:35:11;102827.97;;;19.66;37.99
66021;BME280;52789;59.980;30.346;2023-06-10T04:37:36;102833.31;;;19.90;37.99
66021;BME280;52789;59.980;30.346;2023-06-10T04:40:02;102827.91;;;19.98;37.29
66021;BME280;52789;59.980;30.346;2023-06-10T04:42:28;102825.25;;;19.74;37.75
66021;BME280;52789;59.980;30.346;2023-06-10T04:44:53;102825.38;;;19.89;37.06
66021;BME280;52789;59.980;30.346;2023-06-10T04:47:18;102829.50;;;19.60;38.09
66021;BME280;52789;59.980;30.346;2023-06-10T04:49:44;102826.63;;;19.45;38.85
66021;BME280;52789;59.980;30.346;2023-06-10T04:52:09;102832.69;;;19.72;37.92
66021;BME280;52789;59.980;30.346;2023-06-10T04:54:35;102833.28;;;20.37;36.90
66021;BME280;52789;59.980;30.346;2023-06-10T04:57:00;102833.16;;;20.31;36.10
66021;BME280;52789;59.980;30.346;2023-06-10T04:59:25;102841.16;;;19.69;35.55
66021;BME280;52789;59.980;30.346;2023-06-10T05:01:51;102839.13;;;19.63;36.73
66021;BME280;52789;59.980;30.346;2023-06-10T05:04:16;102848.94;;;19.56;36.30
66021;BME280;52789;59.980;30.346;2023-06-10T05:06:41;102841.84;;;19.22;36.23
66021;BME280;52789;59.980;30.346;2023-06-10T05:09:07;102843.13;;;18.69;36.58
66021;BME280;52789;59.980;30.346;2023-06-10T05:11:32;102852.53;;;18.57;36.40
66021;BME280;52789;59.980;30.346;2023-06-10T05:13:58;102855.88;;;18.09;37.65
66021;BME280;52789;59.980;30.346;2023-06-10T05:16:23;102851.97;;;17.69;38.14
66021;BME280;52789;59.980;30.346;2023-06-10T05:18:48;102854.72;;;17.16;38.78
66021;BME280;52789;59.980;30.346;2023-06-10T05:21:16;102852.63;;;16.47;40.76
66021;BME280;52789;59.980;30.346;2023-06-10T05:23:41;102856.91;;;16.12;41.44
66021;BME280;52789;59.980;30.346;2023-06-10T05:26:06;102859.91;;;15.24;42.96
66021;BME280;52789;59.980;30.346;2023-06-10T05:28:32;102869.06;;;14.33;45.98
66021;BME280;52789;59.980;30.346;2023-06-10T05:30:57;102865.88;;;13.57;47.71
66021;BME280;52789;59.980;30.346;2023-06-10T05:33:22;102858.78;;;13.14;49.10
66021;BME280;52789;59.980;30.346;2023-06-10T05:35:48;102869.09;;;12.87;50.38
66021;BME280;52789;59.980;30.346;2023-06-10T05:38:13;102872.91;;;12.73;50.98
66021;BME280;52789;59.980;30.346;2023-06-10T05:40:38;102869.00;;;12.66;49.82
66021;BME280;52789;59.980;30.346;2023-06-10T05:43:04;102862.50;;;12.48;50.24
66021;BME280;52789;59.980;30.346;2023-06-10T05:45:29;102878.91;;;12.21;51.23
66021;BME280;52789;59.980;30.346;2023-06-10T05:47:54;102878.66;;;12.24;50.53
66021;BME280;52789;59.980;30.346;2023-06-10T05:50:20;102885.09;;;12.32;51.36
66021;BME280;52789;59.980;30.346;2023-06-10T05:52:46;102889.94;;;12.38;51.05
66021;BME280;52789;59.980;30.346;2023-06-10T05:55:11;102882.53;;;12.53;50.97
66021;BME280;52789;59.980;30.346;2023-06-10T05:57:36;102884.44;;;12.62;50.46
66021;BME280;52789;59.980;30.346;2023-06-10T06:00:02;102891.78;;;12.49;51.20
66021;BME280;52789;59.980;30.346;2023-06-10T06:02:28;102894.69;;;12.46;51.34
66021;BME280;52789;59.980;30.346;2023-06-10T06:04:54;102893.72;;;12.47;50.46
66021;BME280;52789;59.980;30.346;2023-06-10T06:07:20;102898.09;;;12.37;51.40
66021;BME280;52789;59.980;30.346;2023-06-10T06:09:46;102899.31;;;12.22;51.63
66021;BME280;52789;59.980;30.346;2023-06-10T06:12:11;102900.41;;;12.19;51.89
66021;BME280;52789;59.980;30.346;2023-06-10T06:14:37;102901.00;;;12.34;50.78
66021;BME280;52789;59.980;30.346;2023-06-10T06:17:04;102883.00;;;12.58;50.41
66021;BME280;52789;59.980;30.346;2023-06-10T06:19:29;102889.78;;;12.74;49.25
66021;BME280;52789;59.980;30.346;2023-06-10T06:21:55;102893.06;;;12.66;48.57
66021;BME280;52789;59.980;30.346;2023-06-10T06:24:20;102886.41;;;12.60;49.94
66021;BME280;52789;59.980;30.346;2023-06-10T06:26:45;102890.53;;;12.64;50.29
66021;BME280;52789;59.980;30.346;2023-06-10T06:29:10;102891.25;;;12.78;48.74
66021;BME280;52789;59.980;30.346;2023-06-10T06:31:36;102898.03;;;12.82;48.57
66021;BME280;52789;59.980;30.346;2023-06-10T06:34:01;102893.19;;;12.76;48.24
66021;BME280;52789;59.980;30.346;2023-06-10T06:36:27;102898.81;;;12.50;47.99
66021;BME280;52789;59.980;30.346;2023-06-10T06:38:52;102901.25;;;12.31;48.54
66021;BME280;52789;59.980;30.346;2023-06-10T06:41:17;102905.38;;;12.24;48.74
66021;BME280;52789;59.980;30.346;2023-06-10T06:43:43;102906.97;;;12.26;49.16
66021;BME280;52789;59.980;30.346;2023-06-10T06:46:08;102898.47;;;12.44;48.85
66021;BME280;52789;59.980;30.346;2023-06-10T06:48:33;102909.75;;;12.47;47.08
66021;BME280;52789;59.980;30.346;2023-06-10T06:50:59;102909.50;;;12.50;47.25
66021;BME280;52789;59.980;30.346;2023-06-10T06:53:24;102896.59;;;12.66;46.62
66021;BME280;52789;59.980;30.346;2023-06-10T06:55:50;102899.47;;;12.86;46.34
66021;BME280;52789;59.980;30.346;2023-06-10T06:58:15;102911.09;;;12.96;46.20
66021;BME280;52789;59.980;30.346;2023-06-10T07:00:41;102914.16;;;12.91;46.52
66021;BME280;52789;59.980;30.346;2023-06-10T07:03:06;102912.34;;;12.92;46.74
66021;BME280;52789;59.980;30.346;2023-06-10T07:05:31;102915.53;;;12.86;47.27
66021;BME280;52789;59.980;30.346;2023-06-10T07:07:57;102921.75;;;12.75;47.22
66021;BME280;52789;59.980;30.346;2023-06-10T07:10:23;102929.03;;;12.62;47.23
66021;BME280;52789;59.980;30.346;2023-06-10T07:12:49;102928.53;;;12.68;46.98
66021;BME280;52789;59.980;30.346;2023-06-10T07:15:15;102926.22;;;12.86;45.39
66021;BME280;52789;59.980;30.346;2023-06-10T07:17:40;102922.38;;;13.22;45.56
66021;BME280;52789;59.980;30.346;2023-06-10T07:20:05;102919.63;;;13.65;45.14
66021;BME280;52789;59.980;30.346;2023-06-10T07:22:31;102925.94;;;14.06;44.10
66021;BME280;52789;59.980;30.346;2023-06-10T07:24:57;102924.78;;;14.29;42.86
66021;BME280;52789;59.980;30.346;2023-06-10T07:27:22;102929.06;;;14.11;43.37
66021;BME280;52789;59.980;30.346;2023-06-10T07:29:47;102934.50;;;14.00;43.73
66021;BME280;52789;59.980;30.346;2023-06-10T07:32:13;102932.63;;;13.70;43.95
66021;BME280;52789;59.980;30.346;2023-06-10T07:34:38;102933.28;;;13.62;43.77
66021;BME280;52789;59.980;30.346;2023-06-10T07:37:03;102937.84;;;13.71;44.43
66021;BME280;52789;59.980;30.346;2023-06-10T07:39:29;102944.56;;;13.86;44.85
66021;BME280;52789;59.980;30.346;2023-06-10T07:41:54;102936.47;;;13.98;44.97
66021;BME280;52789;59.980;30.346;2023-06-10T07:44:22;102933.63;;;13.89;45.00
66021;BME280;52789;59.980;30.346;2023-06-10T07:46:47;102941.63;;;13.69;45.33
66021;BME280;52789;59.980;30.346;2023-06-10T07:49:13;102940.97;;;13.55;46.22
66021;BME280;52789;59.980;30.346;2023-06-10T07:51:38;102942.66;;;13.56;46.72
66021;BME280;52789;59.980;30.346;2023-06-10T07:54:04;102945.66;;;13.42;47.85
66021;BME280;52789;59.980;30.346;2023-06-10T07:56:29;102952.63;;;13.33;48.31
66021;BME280;52789;59.980;30.346;2023-06-10T07:58:54;102956.03;;;13.24;48.58
66021;BME280;52789;59.980;30.346;2023-06-10T08:01:20;102949.59;;;13.16;48.15
66021;BME280;52789;59.980;30.346;2023-06-10T08:03:45;102958.28;;;13.08;48.50
66021;BME280;52789;59.980;30.346;2023-06-10T08:06:10;102957.41;;;13.30;48.77
66021;BME280;52789;59.980;30.346;2023-06-10T08:08:37;102955.94;;;13.79;47.51
66021;BME280;52789;59.980;30.346;2023-06-10T08:11:08;102960.22;;;14.12;47.09
66021;BME280;52789;59.980;30.346;2023-06-10T08:13:33;102952.44;;;14.30;46.06
66021;BME280;52789;59.980;30.346;2023-06-10T08:15:58;102959.47;;;14.21;46.85
66021;BME280;52789;59.980;30.346;2023-06-10T08:18:24;102977.31;;;13.90;46.64
66021;BME280;52789;59.980;30.346;2023-06-10T08:20:49;102961.25;;;13.58;47.06
66021;BME280;52789;59.980;30.346;2023-06-10T08:23:14;102973.53;;;13.40;47.67
66021;BME280;52789;59.980;30.346;2023-06-10T08:25:40;102976.22;;;13.40;47.20
66021;BME280;52789;59.980;30.346;2023-06-10T08:28:05;102974.19;;;13.21;47.01
66021;BME280;52789;59.980;30.346;2023-06-10T08:30:30;102973.09;;;13.12;46.53
66021;BME280;52789;59.980;30.346;2023-06-10T08:32:56;102984.28;;;13.17;46.85
66021;BME280;52789;59.980;30.346;2023-06-10T08:35:24;102978.69;;;13.31;45.73
66021;BME280;52789;59.980;30.346;2023-06-10T08:37:51;102979.47;;;13.43;45.38
66021;BME280;52789;59.980;30.346;2023-06-10T08:40:16;102982.69;;;13.58;45.64
66021;BME280;52789;59.980;30.346;2023-06-10T08:43:00;102987.28;;;13.67;45.62
66021;BME280;52789;59.980;30.346;2023-06-10T08:45:27;102990.28;;;13.74;45.66
66021;BME280;52789;59.980;30.346;2023-06-10T08:47:54;102986.50;;;13.76;45.00
66021;BME280;52789;59.980;30.346;2023-06-10T08:50:23;102992.81;;;13.54;45.87
66021;BME280;52789;59.980;30.346;2023-06-10T08:52:50;102991.94;;;13.54;45.50
66021;BME280;52789;59.980;30.346;2023-06-10T08:55:21;102998.00;;;13.35;45.83
66021;BME280;52789;59.980;30.346;2023-06-10T08:57:51;102991.09;;;13.10;45.93
66021;BME280;52789;59.980;30.346;2023-06-10T09:00:16;102985.28;;;12.94;46.45
66021;BME280;52789;59.980;30.346;2023-06-10T09:02:42;102992.34;;;12.84;45.75
66021;BME280;52789;59.980;30.346;2023-06-10T09:05:08;102990.41;;;12.86;46.54
66021;BME280;52789;59.980;30.346;2023-06-10T09:07:35;102982.09;;;13.00;45.48
66021;BME280;52789;59.980;30.346;2023-06-10T09:10:02;102980.41;;;13.10;44.87
66021;BME280;52789;59.980;30.346;2023-06-10T09:12:29;102981.44;;;13.41;45.22
66021;BME280;52789;59.980;30.346;2023-06-10T09:14:54;102975.78;;;13.76;43.72
66021;BME280;52789;59.980;30.346;2023-06-10T09:17:20;102975.16;;;14.05;42.57
66021;BME280;52789;59.980;30.346;2023-06-10T09:19:45;102985.06;;;14.35;41.54
66021;BME280;52789;59.980;30.346;2023-06-10T09:22:11;102976.09;;;14.45;41.88
66021;BME280;52789;59.980;30.346;2023-06-10T09:24:36;102980.97;;;14.40;42.16
66021;BME280;52789;59.980;30.346;2023-06-10T09:27:03;102987.03;;;14.12;41.72
66021;BME280;52789;59.980;30.346;2023-06-10T09:29:28;102984.03;;;13.84;42.99
66021;BME280;52789;59.980;30.346;2023-06-10T09:31:54;102997.91;;;13.57;42.47
66021;BME280;52789;59.980;30.346;2023-06-10T09:34:20;102999.09;;;13.32;43.31
66021;BME280;52789;59.980;30.346;2023-06-10T09:36:45;102988.75;;;13.17;43.87
66021;BME280;52789;59.980;30.346;2023-06-10T09:39:15;102988.16;;;13.24;43.75
66021;BME280;52789;59.980;30.346;2023-06-10T09:41:41;102987.88;;;13.39;42.43
66021;BME280;52789;59.980;30.346;2023-06-10T09:44:13;102984.66;;;13.56;42.54
66021;BME280;52789;59.980;30.346;2023-06-10T09:46:39;102984.03;;;13.84;42.63
66021;BME280;52789;59.980;30.346;2023-06-10T09:49:05;102983.19;;;14.05;40.75
66021;BME280;52789;59.980;30.346;2023-06-10T09:51:30;102985.00;;;14.04;39.61
66021;BME280;52789;59.980;30.346;2023-06-10T09:53:56;102987.03;;;13.70;40.55
66021;BME280;52789;59.980;30.346;2023-06-10T09:56:21;102987.63;;;13.42;40.40
66021;BME280;52789;59.980;30.346;2023-06-10T09:58:57;102977.91;;;13.29;41.27
66021;BME280;52789;59.980;30.346;2023-06-10T10:01:22;102977.91;;;13.29;40.70
66021;BME280;52789;59.980;30.346;2023-06-10T10:03:49;102982.53;;;13.39;40.63
66021;BME280;52789;59.980;30.346;2023-06-10T10:06:15;102976.00;;;13.31;40.95
66021;BME280;52789;59.980;30.346;2023-06-10T10:08:43;102976.59;;;13.35;41.18
66021;BME280;52789;59.980;30.346;2023-06-10T10:11:09;102972.56;;;13.29;40.41
66021;BME280;52789;59.980;30.346;2023-06-10T10:13:35;102987.06;;;13.27;40.63
66021;BME280;52789;59.980;30.346;2023-06-10T10:16:01;102979.75;;;13.29;40.62
66021;BME280;52789;59.980;30.346;2023-06-10T10:18:29;102969.03;;;13.29;40.78
66021;BME280;52789;59.980;30.346;2023-06-10T10:20:55;102973.06;;;13.35;40.42
66021;BME280;52789;59.980;30.346;2023-06-10T10:23:25;102974.72;;;13.47;39.96
66021;BME280;52789;59.980;30.346;2023-06-10T10:25:52;102986.84;;;13.51;39.21
66021;BME280;52789;59.980;30.346;2023-06-10T10:28:18;102986.53;;;13.44;39.50
66021;BME280;52789;59.980;30.346;2023-06-10T10:30:49;102985.69;;;13.44;39.49
66021;BME280;52789;59.980;30.346;2023-06-10T10:33:16;102985.94;;;13.41;38.83
66021;BME280;52789;59.980;30.346;2023-06-10T10:35:43;102980.97;;;13.36;37.98
66021;BME280;52789;59.980;30.346;2023-06-10T10:38:09;102980.84;;;13.38;38.74
66021;BME280;52789;59.980;30.346;2023-06-10T10:40:34;102978.16;;;13.38;38.86
66021;BME280;52789;59.980;30.346;2023-06-10T10:43:00;102972.03;;;13.47;39.35
66021;BME280;52789;59.980;30.346;2023-06-10T10:45:27;102979.78;;;13.61;39.17
66021;BME280;52789;59.980;30.346;2023-06-10T10:47:53;102979.19;;;13.78;39.05
66021;BME280;52789;59.980;30.346;2023-06-10T10:50:20;102977.22;;;13.80;38.97
66021;BME280;52789;59.980;30.346;2023-06-10T10:52:56;102967.75;;;13.76;38.12
66021;BME280;52789;59.980;30.346;2023-06-10T10:55:24;102983.63;;;13.68;38.16
66021;BME280;52789;59.980;30.346;2023-06-10T10:57:59;102970.28;;;13.57;37.64
66021;BME280;52789;59.980;30.346;2023-06-10T11:00:27;102974.28;;;13.62;38.97
66021;BME280;52789;59.980;30.346;2023-06-10T11:02:52;102969.97;;;13.71;38.44
66021;BME280;52789;59.980;30.346;2023-06-10T11:05:20;102974.22;;;13.74;38.35
66021;BME280;52789;59.980;30.346;2023-06-10T11:07:55;102971.88;;;13.80;37.97
66021;BME280;52789;59.980;30.346;2023-06-10T11:10:31;102972.81;;;13.90;38.46
66021;BME280;52789;59.980;30.346;2023-06-10T11:12:56;102975.22;;;13.93;37.54
66021;BME280;52789;59.980;30.346;2023-06-10T11:15:22;102970.00;;;13.92;37.88
66021;BME280;52789;59.980;30.346;2023-06-10T11:23:35;102962.09;;;13.90;37.93
66021;BME280;52789;59.980;30.346;2023-06-10T11:26:15;102960.97;;;13.93;38.25
66021;BME280;52789;59.980;30.346;2023-06-10T11:28:42;102965.94;;;13.98;37.79
66021;BME280;52789;59.980;30.346;2023-06-10T11:31:08;102971.75;;;14.03;38.15
66021;BME280;52789;59.980;30.346;2023-06-10T11:33:34;102978.75;;;13.94;37.43
66021;BME280;52789;59.980;30.346;2023-06-10T11:36:06;102972.19;;;13.87;37.13
66021;BME280;52789;59.980;30.346;2023-06-10T11:38:31;102969.84;;;13.73;37.35
66021;BME280;52789;59.980;30.346;2023-06-10T11:40:57;102966.78;;;13.77;38.02
66021;BME280;52789;59.980;30.346;2023-06-10T11:43:22;102971.13;;;13.89;37.82
66021;BME280;52789;59.980;30.346;2023-06-10T11:45:48;102971.34;;;13.86;37.75
66021;BME280;52789;59.980;30.346;2023-06-10T11:48:18;102969.66;;;13.85;38.02
66021;BME280;52789;59.980;30.346;2023-06-10T11:50:44;102980.97;;;13.89;38.30
66021;BME280;52789;59.980;30.346;2023-06-10T11:53:09;102984.69;;;13.98;38.27
66021;BME280;52789;59.980;30.346;2023-06-10T11:58:16;102972.09;;;13.88;38.55
66021;BME280;52789;59.980;30.346;2023-06-10T12:00:45;102975.41;;;14.02;38.39
66021;BME280;52789;59.980;30.346;2023-06-10T12:03:11;102979.38;;;13.86;38.22
66021;BME280;52789;59.980;30.346;2023-06-10T12:05:36;102983.75;;;13.87;38.45
66021;BME280;52789;59.980;30.346;2023-06-10T12:08:11;102978.31;;;13.89;38.11
66021;BME280;52789;59.980;30.346;2023-06-10T12:10:40;102970.50;;;13.86;38.31
66021;BME280;52789;59.980;30.346;2023-06-10T12:13:06;102980.63;;;13.82;38.32
66021;BME280;52789;59.980;30.346;2023-06-10T12:15:32;102969.06;;;13.82;38.68
66021;BME280;52789;59.980;30.346;2023-06-10T12:17:58;102977.22;;;13.80;38.87
66021;BME280;52789;59.980;30.346;2023-06-10T12:20:24;102975.00;;;13.85;39.15
66021;BME280;52789;59.980;30.346;2023-06-10T12:22:50;102974.63;;;13.90;38.93
66021;BME280;52789;59.980;30.346;2023-06-10T12:25:15;102972.88;;;14.00;39.01
66021;BME280;52789;59.980;30.346;2023-06-10T12:27:50;102977.44;;;14.09;38.47
66021;BME280;52789;59.980;30.346;2023-06-10T12:30:18;102976.03;;;14.15;38.52
66021;BME280;52789;59.980;30.346;2023-06-10T12:32:44;102962.19;;;14.10;38.05
66021;BME280;52789;59.980;30.346;2023-06-10T12:35:11;102966.94;;;13.97;37.61
66021;BME280;52789;59.980;30.346;2023-06-10T12:37:38;102966.34;;;13.93;38.94
66021;BME280;52789;59.980;30.346;2023-06-10T12:40:03;102964.13;;;13.98;37.91
66021;BME280;52789;59.980;30.346;2023-06-10T12:42:30;102965.41;;;14.04;37.73
66021;BME280;52789;59.980;30.346;2023-06-10T12:44:56;102968.50;;;13.99;37.90
66021;BME280;52789;59.980;30.346;2023-06-10T12:47:35;102963.41;;;13.96;38.10
66021;BME280;52789;59.980;30.346;2023-06-10T12:50:03;102976.41;;;14.01;38.09
66021;BME280;52789;59.980;30.346;2023-06-10T12:52:29;102975.22;;;13.93;38.46
66021;BME280;52789;59.980;30.346;2023-06-10T12:54:55;102972.81;;;13.90;37.84